Time;durP1;ratioP1;P1;durP2;ratioP2;P2;SDS_P1;SDS_P2;PMS_P1;PMS_P2;Temp;Humidity;BMP_temperature;BMP_pressure;BME280_temperature;BME280_humidity;BME280_pressure;Samples;Min_cycle;Max_cycle;Signal;HPM_P1;HPM_P2
2021/09/06 00:03:16;;;;;;;;;;;23.50;46.70;;;;;;8363369;28;19920;-47
2021/09/06 00:07:17;;;;;;;;;;;23.50;46.70;;;;;;8362715;28;19916;-47
2021/09/06 00:11:17;;;;;;;;;;;23.50;46.70;;;;;;8363794;28;20262;-46
2021/09/06 00:15:18;;;;;;;;;;;23.50;46.70;;;;;;8363139;28;19939;-48
2021/09/06 00:19:20;;;;;;;;;;;23.50;46.70;;;;;;8362700;28;19916;-47
2021/09/06 00:23:20;;;;;;;;;;;23.50;46.70;;;;;;8362849;28;19913;-47
2021/09/06 00:27:21;;;;;;;;;;;23.50;46.70;;;;;;8363860;28;20342;-48
2021/09/06 00:31:21;;;;;;;;;;;23.50;46.70;;;;;;8362281;28;19951;-48
2021/09/06 00:35:22;;;;;;;;;;;23.50;46.70;;;;;;8362852;28;19916;-48
2021/09/06 00:39:22;;;;;;;;;;;23.40;46.70;;;;;;8362884;28;20280;-48
2021/09/06 00:43:22;;;;;;;;;;;23.50;46.70;;;;;;8362488;28;19917;-47
2021/09/06 00:47:23;;;;;;;;;;;23.40;46.70;;;;;;8365807;28;19917;-47
2021/09/06 00:51:23;;;;;;;;;;;23.40;46.70;;;;;;8369337;28;19924;-47
2021/09/06 00:55:24;;;;;;;;;;;23.40;46.70;;;;;;8368566;28;19956;-47
2021/09/06 00:59:24;;;;;;;;;;;23.40;46.70;;;;;;8369273;28;19916;-47
2021/09/06 01:03:25;;;;;;;;;;;23.40;46.70;;;;;;8369752;28;20003;-47
2021/09/06 01:07:26;;;;;;;;;;;23.40;46.70;;;;;;8368222;28;19921;-47
2021/09/06 01:11:26;;;;;;;;;;;23.40;46.70;;;;;;8368978;28;20304;-48
2021/09/06 01:15:26;;;;;;;;;;;23.40;46.70;;;;;;8368624;28;19963;-48
2021/09/06 01:19:27;;;;;;;;;;;23.40;46.80;;;;;;8368868;28;19923;-48
2021/09/06 01:23:27;;;;;;;;;;;23.40;46.70;;;;;;8368214;28;19917;-47
2021/09/06 01:27:28;;;;;;;;;;;23.30;46.70;;;;;;8368610;28;20004;-47
2021/09/06 01:31:28;;;;;;;;;;;23.30;46.70;;;;;;8367584;28;19931;-47
2021/09/06 01:35:29;;;;;;;;;;;23.30;46.70;;;;;;8367775;28;19919;-47
2021/09/06 01:39:29;;;;;;;;;;;23.30;46.70;;;;;;8368597;28;19923;-47
2021/09/06 01:43:30;;;;;;;;;;;23.30;46.70;;;;;;8367169;28;19924;-47
2021/09/06 01:47:30;;;;;;;;;;;23.30;46.80;;;;;;8367425;28;19924;-47
2021/09/06 01:51:31;;;;;;;;;;;23.30;46.70;;;;;;8367324;28;19932;-47
2021/09/06 01:55:31;;;;;;;;;;;23.30;46.80;;;;;;8367466;28;19913;-48
2021/09/06 01:59:31;;;;;;;;;;;23.30;46.80;;;;;;8366598;28;19960;-48
2021/09/06 02:03:32;;;;;;;;;;;23.30;46.80;;;;;;8367023;28;19917;-47
2021/09/06 02:07:32;;;;;;;;;;;23.30;46.80;;;;;;8366424;28;19924;-47
2021/09/06 02:11:33;;;;;;;;;;;23.30;46.80;;;;;;8367898;28;19924;-47
2021/09/06 02:15:33;;;;;;;;;;;23.20;46.70;;;;;;8366676;28;20012;-46
2021/09/06 02:19:34;;;;;;;;;;;23.20;46.70;;;;;;8366091;28;19917;-48
2021/09/06 02:23:34;;;;;;;;;;;23.20;46.80;;;;;;8366401;28;19913;-48
2021/09/06 02:27:35;;;;;;;;;;;23.20;46.70;;;;;;8366511;28;20332;-47
2021/09/06 02:31:35;;;;;;;;;;;23.20;46.80;;;;;;8366371;28;19971;-47
2021/09/06 02:35:36;;;;;;;;;;;23.20;46.80;;;;;;8366027;28;19920;-47
2021/09/06 02:39:36;;;;;;;;;;;23.20;46.80;;;;;;8365907;28;19967;-47
2021/09/06 02:43:37;;;;;;;;;;;23.20;46.80;;;;;;8365812;28;20365;-47
2021/09/06 02:47:37;;;;;;;;;;;23.20;46.80;;;;;;8366453;28;19935;-47
2021/09/06 02:51:39;;;;;;;;;;;23.20;46.80;;;;;;8394376;28;19924;-47
2021/09/06 02:55:40;;;;;;;;;;;23.20;46.80;;;;;;8397964;28;19973;-47
2021/09/06 02:59:40;;;;;;;;;;;23.20;46.80;;;;;;8398567;28;20369;-48
2021/09/06 03:03:40;;;;;;;;;;;23.20;46.80;;;;;;8398890;28;19941;-47
2021/09/06 03:07:41;;;;;;;;;;;23.10;46.80;;;;;;8397309;28;19916;-47
2021/09/06 03:11:42;;;;;;;;;;;23.10;46.80;;;;;;8397137;28;19931;-48
2021/09/06 03:15:42;;;;;;;;;;;23.10;46.80;;;;;;8398116;28;19944;-46
2021/09/06 03:19:43;;;;;;;;;;;23.10;46.80;;;;;;8397254;28;19923;-47
2021/09/06 03:23:43;;;;;;;;;;;23.10;46.80;;;;;;8398265;28;19919;-47
2021/09/06 03:27:43;;;;;;;;;;;23.10;46.80;;;;;;8397485;28;20029;-47
2021/09/06 03:31:44;;;;;;;;;;;23.10;46.80;;;;;;8396714;28;20296;-48
2021/09/06 03:35:44;;;;;;;;;;;23.10;46.80;;;;;;8397188;28;19958;-48
2021/09/06 03:39:45;;;;;;;;;;;23.10;46.90;;;;;;8397859;28;19920;-49
2021/09/06 03:43:45;;;;;;;;;;;23.10;46.90;;;;;;8396504;28;19920;-47
2021/09/06 03:47:46;;;;;;;;;;;23.10;46.80;;;;;;8397080;28;19927;-48
2021/09/06 03:51:46;;;;;;;;;;;23.10;46.80;;;;;;8396627;28;19920;-48
2021/09/06 03:55:47;;;;;;;;;;;23.10;46.80;;;;;;8396456;28;20266;-48
2021/09/06 03:59:47;;;;;;;;;;;23.00;46.80;;;;;;8397274;28;19922;-47
2021/09/06 04:03:48;;;;;;;;;;;23.00;46.80;;;;;;8396589;28;19912;-49
2021/09/06 04:07:48;;;;;;;;;;;23.00;46.90;;;;;;8396034;28;19916;-50
2021/09/06 04:11:48;;;;;;;;;;;23.00;46.80;;;;;;8396837;28;19929;-46
2021/09/06 04:15:49;;;;;;;;;;;23.00;46.80;;;;;;8397068;28;19966;-47
2021/09/06 04:19:49;;;;;;;;;;;23.00;46.80;;;;;;8396157;28;19956;-47
2021/09/06 04:23:50;;;;;;;;;;;23.00;46.80;;;;;;8395925;28;20426;-50
2021/09/06 04:27:50;;;;;;;;;;;23.00;46.80;;;;;;8392981;28;19936;-48
2021/09/06 04:31:51;;;;;;;;;;;22.90;46.80;;;;;;8396880;28;19921;-47
2021/09/06 04:35:52;;;;;;;;;;;23.00;46.90;;;;;;8365137;28;19939;-48
2021/09/06 04:39:53;;;;;;;;;;;22.90;46.80;;;;;;8362425;28;19924;-47
2021/09/06 04:43:53;;;;;;;;;;;22.90;46.80;;;;;;8363066;28;19917;-47
2021/09/06 04:47:53;;;;;;;;;;;22.90;46.80;;;;;;8362862;28;19920;-48
2021/09/06 04:51:54;;;;;;;;;;;22.90;46.80;;;;;;8362846;28;19974;-52
2021/09/06 04:55:55;;;;;;;;;;;22.90;46.80;;;;;;8362503;28;19917;-51
2021/09/06 04:59:55;;;;;;;;;;;22.90;46.80;;;;;;8362366;28;19928;-50
2021/09/06 05:03:56;;;;;;;;;;;22.90;46.80;;;;;;8362063;28;19920;-47
2021/09/06 05:07:56;;;;;;;;;;;22.90;46.80;;;;;;8362981;28;19917;-47
2021/09/06 05:11:56;;;;;;;;;;;22.90;46.80;;;;;;8362003;28;19925;-48
2021/09/06 05:15:57;;;;;;;;;;;22.90;46.80;;;;;;8361890;28;20350;-46
2021/09/06 05:19:58;;;;;;;;;;;22.90;46.80;;;;;;8362154;28;19917;-47
2021/09/06 05:23:58;;;;;;;;;;;22.90;46.80;;;;;;8363208;28;19916;-47
2021/09/06 05:27:59;;;;;;;;;;;22.80;46.80;;;;;;8361696;28;20358;-46
2021/09/06 05:31:59;;;;;;;;;;;22.80;46.80;;;;;;8362180;28;19931;-48
2021/09/06 05:36:00;;;;;;;;;;;22.80;46.80;;;;;;8366958;28;19921;-49
2021/09/06 05:40:00;;;;;;;;;;;22.80;46.80;;;;;;8367396;28;19913;-49
2021/09/06 05:44:04;;;;;;;;;;;22.80;46.80;;;;;;8368385;28;19923;-49
2021/09/06 05:48:05;;;;;;;;;;;22.80;46.80;;;;;;8367588;28;20301;-49
2021/09/06 05:52:05;;;;;;;;;;;22.80;46.80;;;;;;8366992;28;19925;-49
2021/09/06 05:56:06;;;;;;;;;;;22.80;46.80;;;;;;8367207;28;20424;-49
2021/09/06 06:00:07;;;;;;;;;;;22.80;46.80;;;;;;8367816;28;20292;-50
2021/09/06 06:04:08;;;;;;;;;;;22.80;46.80;;;;;;8366517;28;19917;-50
2021/09/06 06:08:08;;;;;;;;;;;22.80;46.80;;;;;;8366900;28;19940;-48
2021/09/06 06:12:09;;;;;;;;;;;22.80;46.80;;;;;;8366827;28;20290;-49
2021/09/06 06:16:09;;;;;;;;;;;22.80;46.70;;;;;;8366716;28;20435;-50
2021/09/06 06:20:10;;;;;;;;;;;22.80;46.70;;;;;;8366848;28;19917;-51
2021/09/06 06:24:10;;;;;;;;;;;22.80;46.70;;;;;;8366348;28;19917;-48
2021/09/06 06:28:11;;;;;;;;;;;22.80;46.70;;;;;;8365729;28;20290;-49
2021/09/06 06:32:11;;;;;;;;;;;22.80;46.60;;;;;;8365942;28;20393;-48
2021/09/06 06:36:12;;;;;;;;;;;22.80;46.60;;;;;;8366591;28;19917;-49
2021/09/06 06:40:13;;;;;;;;;;;22.80;46.60;;;;;;8365607;28;20444;-48
2021/09/06 06:44:14;;;;;;;;;;;22.80;46.60;;;;;;8365745;28;19917;-48
2021/09/06 06:48:14;;;;;;;;;;;22.90;46.60;;;;;;8365713;28;20393;-49
2021/09/06 06:52:15;;;;;;;;;;;22.80;46.50;;;;;;8365703;28;19944;-48
2021/09/06 06:56:15;;;;;;;;;;;22.90;46.60;;;;;;8365420;28;20408;-52
2021/09/06 07:00:16;;;;;;;;;;;22.80;46.60;;;;;;8347313;28;19956;-48
2021/09/06 07:04:18;;;;;;;;;;;22.90;46.60;;;;;;8364818;28;20007;-49
2021/09/06 07:08:19;;;;;;;;;;;22.90;46.60;;;;;;8364879;28;19917;-48
2021/09/06 07:12:19;;;;;;;;;;;22.90;46.50;;;;;;8365722;28;19986;-49
2021/09/06 07:16:20;;;;;;;;;;;22.80;46.50;;;;;;8364616;28;20371;-50
2021/09/06 07:20:20;;;;;;;;;;;22.80;46.60;;;;;;8364764;28;19921;-50
2021/09/06 07:24:20;;;;;;;;;;;22.80;46.60;;;;;;8364772;28;19948;-49
2021/09/06 07:28:21;;;;;;;;;;;22.80;46.50;;;;;;8364808;28;19916;-52
2021/09/06 07:32:21;;;;;;;;;;;22.90;46.50;;;;;;8364614;28;20305;-48
2021/09/06 07:36:23;;;;;;;;;;;22.90;46.50;;;;;;8364416;28;19920;-50
2021/09/06 07:40:23;;;;;;;;;;;22.90;46.50;;;;;;8363642;28;19917;-50
2021/09/06 07:44:24;;;;;;;;;;;22.90;46.50;;;;;;8365191;28;19959;-50
2021/09/06 07:48:24;;;;;;;;;;;22.90;46.50;;;;;;8364034;28;19917;-48
2021/09/06 07:52:25;;;;;;;;;;;22.90;46.60;;;;;;8363386;28;19928;-49
2021/09/06 07:56:25;;;;;;;;;;;22.90;46.60;;;;;;8363770;28;20003;-49
2021/09/06 08:00:26;;;;;;;;;;;22.80;46.60;;;;;;8363717;28;19927;-52
2021/09/06 08:04:26;;;;;;;;;;;22.80;46.60;;;;;;8363809;28;20395;-47
2021/09/06 08:08:27;;;;;;;;;;;22.80;46.60;;;;;;8363431;28;19920;-48
2021/09/06 08:12:27;;;;;;;;;;;22.80;47.20;;;;;;8363211;28;19925;-47
2021/09/06 08:16:28;;;;;;;;;;;22.90;46.70;;;;;;8362665;28;19960;-49
2021/09/06 08:20:28;;;;;;;;;;;22.80;46.60;;;;;;8364254;28;19913;-48
2021/09/06 08:24:29;;;;;;;;;;;22.90;46.70;;;;;;8363248;28;19917;-48
2021/09/06 08:28:29;;;;;;;;;;;22.90;46.70;;;;;;8362591;28;19917;-50
2021/09/06 08:32:30;;;;;;;;;;;22.90;46.70;;;;;;8362971;28;19924;-48
2021/09/06 08:36:30;;;;;;;;;;;22.90;46.70;;;;;;8363543;28;19913;-51
2021/09/06 08:40:30;;;;;;;;;;;22.90;46.70;;;;;;8362545;28;19931;-48
2021/09/06 08:44:31;;;;;;;;;;;22.90;46.70;;;;;;8362993;28;20359;-49
2021/09/06 08:48:31;;;;;;;;;;;22.90;46.70;;;;;;8362828;28;19948;-48
2021/09/06 08:52:32;;;;;;;;;;;22.90;46.70;;;;;;8362361;28;20329;-50
2021/09/06 08:56:33;;;;;;;;;;;22.90;46.70;;;;;;8363564;28;19958;-51
2021/09/06 09:00:34;;;;;;;;;;;22.90;46.80;;;;;;8365976;28;19917;-49
2021/09/06 09:04:34;;;;;;;;;;;22.90;46.70;;;;;;8363733;28;19917;-49
2021/09/06 09:08:37;;;;;;;;;;;23.00;46.80;;;;;;8366517;28;19921;-47
2021/09/06 09:12:38;;;;;;;;;;;23.00;47.30;;;;;;8369760;28;19925;-49
2021/09/06 09:16:39;;;;;;;;;;;23.00;46.80;;;;;;8368014;28;20054;-50
2021/09/06 09:20:40;;;;;;;;;;;23.00;46.80;;;;;;8368703;28;19921;-48
2021/09/06 09:24:40;;;;;;;;;;;23.00;46.80;;;;;;8368314;28;20375;-48
2021/09/06 09:28:43;;;;;;;;;;;23.00;46.80;;;;;;8368002;28;19966;-47
2021/09/06 09:32:44;;;;;;;;;;;23.00;46.80;;;;;;8368893;28;20007;-48
2021/09/06 09:36:44;;;;;;;;;;;23.00;46.80;;;;;;8392197;28;19923;-49
2021/09/06 09:40:47;;;;;;;;;;;23.10;46.80;;;;;;8400630;28;20011;-50
2021/09/06 09:44:49;;;;;;;;;;;23.10;47.40;;;;;;8400781;28;19916;-49
2021/09/06 09:48:50;;;;;;;;;;;23.10;46.80;;;;;;8401265;28;19958;-47
2021/09/06 09:52:51;;;;;;;;;;;23.10;46.80;;;;;;8400390;28;20399;-49
2021/09/06 09:56:53;;;;;;;;;;;23.10;46.80;;;;;;8400604;28;19917;-49
2021/09/06 10:00:54;;;;;;;;;;;23.20;46.80;;;;;;8400088;28;19923;-47
2021/09/06 10:05:01;;;;;;;;;;;23.20;46.80;;;;;;8401056;28;19917;-48
2021/09/06 10:09:01;;;;;;;;;;;23.20;46.80;;;;;;8400418;28;19971;-47
2021/09/06 10:13:06;;;;;;;;;;;23.20;46.80;;;;;;8399634;28;20011;-49
2021/09/06 10:17:07;;;;;;;;;;;23.20;46.80;;;;;;8400178;28;19920;-48
2021/09/06 10:21:15;;;;;;;;;;;23.20;46.70;;;;;;8399350;28;19923;-47
2021/09/06 10:25:17;;;;;;;;;;;23.20;46.70;;;;;;8399964;28;19982;-47
2021/09/06 10:29:19;;;;;;;;;;;23.30;46.70;;;;;;8399667;28;19924;-50
2021/09/06 10:33:30;;;;;;;;;;;23.30;46.70;;;;;;8399447;28;19925;-47
2021/09/06 10:37:34;;;;;;;;;;;23.30;46.70;;;;;;8398532;28;19923;-47
2021/09/06 10:41:45;;;;;;;;;;;23.30;46.60;;;;;;8399311;28;19919;-47
2021/09/06 10:45:47;;;;;;;;;;;23.30;46.70;;;;;;8399765;28;19958;-46
2021/09/06 10:49:47;;;;;;;;;;;23.40;46.70;;;;;;8398279;28;19930;-47
2021/09/06 10:53:49;;;;;;;;;;;23.40;46.70;;;;;;8398620;28;19942;-48
2021/09/06 10:57:50;;;;;;;;;;;23.40;46.70;;;;;;8398200;28;19917;-47
2021/09/06 11:01:52;;;;;;;;;;;23.40;46.70;;;;;;8399548;28;19912;-48
2021/09/06 11:05:57;;;;;;;;;;;23.40;46.70;;;;;;8398419;28;19972;-49
2021/09/06 11:10:10;;;;;;;;;;;23.40;46.70;;;;;;8397329;28;20376;-48
2021/09/06 11:14:12;;;;;;;;;;;23.40;46.70;;;;;;8398295;28;19923;-47
2021/09/06 11:18:13;;;;;;;;;;;23.40;46.70;;;;;;8397847;28;19921;-48
2021/09/06 11:22:15;;;;;;;;;;;23.40;46.70;;;;;;8398133;28;19919;-48
2021/09/06 11:26:23;;;;;;;;;;;23.50;46.70;;;;;;8397438;28;19971;-48
2021/09/06 11:30:24;;;;;;;;;;;23.50;46.60;;;;;;8397191;28;20270;-48
2021/09/06 11:34:24;;;;;;;;;;;23.50;46.60;;;;;;8396588;28;19917;-48
2021/09/06 11:38:25;;;;;;;;;;;23.60;46.60;;;;;;8398021;28;19920;-49
2021/09/06 11:42:27;;;;;;;;;;;23.60;46.60;;;;;;8396761;28;19916;-47
2021/09/06 11:46:27;;;;;;;;;;;23.60;46.60;;;;;;8374403;28;20358;-47
2021/09/06 11:50:29;;;;;;;;;;;23.60;46.60;;;;;;8363919;28;19925;-47
2021/09/06 11:54:39;;;;;;;;;;;23.60;46.60;;;;;;8363986;28;19943;-48
2021/09/06 11:58:44;;;;;;;;;;;23.60;46.60;;;;;;8364299;28;20387;-47
2021/09/06 12:02:49;;;;;;;;;;;23.60;46.60;;;;;;8363780;28;19984;-47
2021/09/06 12:06:49;;;;;;;;;;;23.70;46.60;;;;;;8363749;28;19921;-48
2021/09/06 12:10:50;;;;;;;;;;;23.70;46.60;;;;;;8371043;28;19951;-51
2021/09/06 12:14:51;;;;;;;;;;;23.70;46.50;;;;;;8397375;28;20353;-48
2021/09/06 12:18:51;;;;;;;;;;;23.70;46.50;;;;;;8396227;28;19981;-48
2021/09/06 12:22:54;;;;;;;;;;;23.70;46.50;;;;;;8396375;28;20008;-50
2021/09/06 12:26:54;;;;;;;;;;;23.80;46.50;;;;;;8378360;28;20007;-51
2021/09/06 12:30:56;;;;;;;;;;;23.80;46.50;;;;;;8395701;28;19924;-48
2021/09/06 12:34:57;;;;;;;;;;;23.80;46.50;;;;;;8397195;28;19917;-47
2021/09/06 12:38:57;;;;;;;;;;;23.80;46.50;;;;;;8378454;28;20292;-46
2021/09/06 12:42:58;;;;;;;;;;;23.80;46.50;;;;;;8397422;28;19913;-47
2021/09/06 12:46:58;;;;;;;;;;;23.80;46.50;;;;;;8402787;28;20357;-47
2021/09/06 12:50:59;;;;;;;;;;;23.80;46.50;;;;;;8403546;28;19956;-46
2021/09/06 12:54:59;;;;;;;;;;;23.90;46.50;;;;;;8401988;28;20388;-46
2021/09/06 12:59:00;;;;;;;;;;;23.90;46.50;;;;;;8402504;28;19917;-47
2021/09/06 13:03:02;;;;;;;;;;;23.90;46.50;;;;;;8402379;28;19919;-47
2021/09/06 13:07:02;;;;;;;;;;;23.90;46.40;;;;;;8402267;28;20352;-48
2021/09/06 13:11:03;;;;;;;;;;;23.90;46.40;;;;;;8402545;28;19978;-46
2021/09/06 13:15:04;;;;;;;;;;;23.90;46.50;;;;;;8401974;28;20350;-47
2021/09/06 13:19:05;;;;;;;;;;;23.90;46.50;;;;;;8401448;28;19916;-47
2021/09/06 13:23:09;;;;;;;;;;;24.00;46.50;;;;;;8401897;28;20053;-47
2021/09/06 13:27:10;;;;;;;;;;;23.90;46.50;;;;;;8402326;28;19916;-47
2021/09/06 13:31:14;;;;;;;;;;;23.90;46.50;;;;;;8400688;28;19932;-46
2021/09/06 13:35:15;;;;;;;;;;;24.00;46.50;;;;;;8401286;28;19917;-47
2021/09/06 13:39:15;;;;;;;;;;;24.00;46.50;;;;;;8401205;28;19913;-47
2021/09/06 13:43:16;;;;;;;;;;;24.00;46.60;;;;;;8401358;28;19924;-49
2021/09/06 13:47:16;;;;;;;;;;;24.00;46.60;;;;;;8400714;28;19926;-47
2021/09/06 13:51:17;;;;;;;;;;;24.00;46.50;;;;;;8400675;28;20011;-47
2021/09/06 13:55:17;;;;;;;;;;;24.00;46.50;;;;;;8399228;28;20381;-47
2021/09/06 13:59:19;;;;;;;;;;;24.00;46.40;;;;;;8400558;28;20254;-53
2021/09/06 14:03:19;;;;;;;;;;;24.00;46.50;;;;;;8400898;28;19916;-48
2021/09/06 14:07:19;;;;;;;;;;;24.00;46.50;;;;;;8399402;28;20365;-49
2021/09/06 14:11:20;;;;;;;;;;;24.00;46.50;;;;;;8400509;28;19924;-46
2021/09/06 14:15:20;;;;;;;;;;;24.10;46.50;;;;;;8400155;28;20296;-48
2021/09/06 14:19:21;;;;;;;;;;;24.10;46.40;;;;;;8400375;28;19916;-47
2021/09/06 14:23:21;;;;;;;;;;;24.10;46.40;;;;;;8399925;28;20357;-49
2021/09/06 14:27:22;;;;;;;;;;;24.10;46.50;;;;;;8399859;28;19919;-48
2021/09/06 14:31:22;;;;;;;;;;;24.10;46.50;;;;;;8399057;28;19932;-47
2021/09/06 14:35:23;;;;;;;;;;;24.10;46.30;;;;;;8400269;28;19913;-49
2021/09/06 14:39:23;;;;;;;;;;;24.10;46.40;;;;;;8399532;28;20300;-47
2021/09/06 14:43:24;;;;;;;;;;;24.10;46.50;;;;;;8398574;28;19923;-50
2021/09/06 14:47:24;;;;;;;;;;;24.10;46.50;;;;;;8399049;28;19919;-50
2021/09/06 14:51:25;;;;;;;;;;;24.10;46.30;;;;;;8398794;28;20300;-51
2021/09/06 14:55:26;;;;;;;;;;;24.10;46.40;;;;;;8398824;28;19974;-50
2021/09/06 14:59:26;;;;;;;;;;;24.10;46.40;;;;;;8399075;28;19917;-48
2021/09/06 15:03:27;;;;;;;;;;;24.20;46.40;;;;;;8398678;28;20010;-47
2021/09/06 15:07:27;;;;;;;;;;;24.20;46.40;;;;;;8398061;28;19920;-50
2021/09/06 15:11:28;;;;;;;;;;;24.20;46.40;;;;;;8398671;28;19932;-47
2021/09/06 15:15:28;;;;;;;;;;;24.20;46.40;;;;;;8397882;28;20003;-48
2021/09/06 15:19:28;;;;;;;;;;;24.20;46.30;;;;;;8397589;28;19924;-48
2021/09/06 15:23:29;;;;;;;;;;;24.20;46.30;;;;;;8397588;28;19917;-48
2021/09/06 15:27:32;;;;;;;;;;;24.20;46.40;;;;;;8398176;28;19912;-51
2021/09/06 15:31:40;;;;;;;;;;;24.20;46.30;;;;;;8397525;28;19927;-49
2021/09/06 15:35:41;;;;;;;;;;;24.20;46.30;;;;;;8397728;28;19916;-47
2021/09/06 15:39:44;;;;;;;;;;;24.20;46.20;;;;;;8397187;28;19923;-48
2021/09/06 15:43:46;;;;;;;;;;;24.20;46.30;;;;;;8396605;28;19917;-47
2021/09/06 15:47:46;;;;;;;;;;;24.20;46.30;;;;;;8397984;28;19919;-46
2021/09/06 15:51:47;;;;;;;;;;;24.30;46.20;;;;;;8397057;28;19935;-47
2021/09/06 15:55:47;;;;;;;;;;;24.30;46.20;;;;;;8396466;28;19966;-49
2021/09/06 15:59:48;;;;;;;;;;;24.30;46.40;;;;;;8397085;28;19916;-48
2021/09/06 16:03:48;;;;;;;;;;;24.30;46.30;;;;;;8397715;28;19958;-48
2021/09/06 16:07:50;;;;;;;;;;;24.30;46.40;;;;;;8396162;28;19951;-48
2021/09/06 16:11:51;;;;;;;;;;;24.30;46.10;;;;;;8396381;28;19925;-48
2021/09/06 16:15:51;;;;;;;;;;;24.20;46.20;;;;;;8396184;28;19919;-50
2021/09/06 16:19:52;;;;;;;;;;;24.30;46.30;;;;;;8396036;28;19951;-47
2021/09/06 16:23:52;;;;;;;;;;;24.30;46.30;;;;;;8397200;28;20296;-46
2021/09/06 16:27:53;;;;;;;;;;;24.30;46.30;;;;;;8395791;28;20421;-48
2021/09/06 16:31:53;;;;;;;;;;;24.30;46.30;;;;;;8396456;28;19924;-51
2021/09/06 16:35:54;;;;;;;;;;;24.30;46.20;;;;;;8408133;28;19966;-48
2021/09/06 16:39:54;;;;;;;;;;;24.30;46.30;;;;;;8378624;28;19962;-52
2021/09/06 16:43:55;;;;;;;;;;;24.30;46.40;;;;;;8396083;28;20007;-49
2021/09/06 16:47:56;;;;;;;;;;;24.30;46.30;;;;;;8396066;28;20293;-48
2021/09/06 16:51:56;;;;;;;;;;;24.30;46.20;;;;;;8395605;28;20387;-48
2021/09/06 16:55:57;;;;;;;;;;;24.30;46.30;;;;;;8395772;28;19922;-50
2021/09/06 16:59:57;;;;;;;;;;;24.30;46.30;;;;;;8396106;28;20373;-48
2021/09/06 17:03:58;;;;;;;;;;;24.30;46.20;;;;;;8395255;28;19966;-49
2021/09/06 17:07:58;;;;;;;;;;;24.30;46.20;;;;;;8395889;28;19939;-48
2021/09/06 17:11:59;;;;;;;;;;;24.30;46.10;;;;;;8395383;28;19928;-50
2021/09/06 17:15:59;;;;;;;;;;;24.30;46.10;;;;;;8395790;28;19912;-51
2021/09/06 17:20:00;;;;;;;;;;;24.30;46.10;;;;;;8395456;28;19955;-46
2021/09/06 17:24:01;;;;;;;;;;;24.30;46.20;;;;;;8395497;28;19917;-47
2021/09/06 17:28:01;;;;;;;;;;;24.30;46.20;;;;;;8394748;28;19916;-48
2021/09/06 17:32:02;;;;;;;;;;;24.30;46.20;;;;;;8400824;28;19928;-49
2021/09/06 17:36:03;;;;;;;;;;;24.30;46.20;;;;;;8401381;28;20498;-49
2021/09/06 17:40:04;;;;;;;;;;;24.30;46.20;;;;;;8400490;28;19916;-51
2021/09/06 17:44:05;;;;;;;;;;;24.30;46.30;;;;;;8401108;28;19920;-46
2021/09/06 17:48:05;;;;;;;;;;;24.30;46.30;;;;;;8400826;28;19966;-47
2021/09/06 17:52:06;;;;;;;;;;;24.30;46.30;;;;;;8400937;28;20274;-47
2021/09/06 17:56:07;;;;;;;;;;;24.30;46.30;;;;;;8400555;28;20079;-48
2021/09/06 18:00:07;;;;;;;;;;;24.30;46.30;;;;;;8400329;28;20226;-47
2021/09/06 18:04:08;;;;;;;;;;;24.30;46.30;;;;;;8400001;28;20332;-49
2021/09/06 18:08:08;;;;;;;;;;;24.30;46.30;;;;;;8400730;28;19916;-47
2021/09/06 18:12:09;;;;;;;;;;;24.30;46.30;;;;;;8400100;28;19925;-47
2021/09/06 18:16:09;;;;;;;;;;;24.30;46.30;;;;;;8399608;28;19924;-52
2021/09/06 18:20:10;;;;;;;;;;;24.20;46.30;;;;;;8400492;28;19952;-50
2021/09/06 18:24:11;;;;;;;;;;;24.30;46.30;;;;;;8409491;28;19912;-47
2021/09/06 18:28:12;;;;;;;;;;;24.30;46.30;;;;;;8399889;28;19927;-48
2021/09/06 18:32:12;;;;;;;;;;;24.30;46.30;;;;;;8399457;28;20320;-48
2021/09/06 18:36:13;;;;;;;;;;;24.20;46.30;;;;;;8399454;28;20342;-47
2021/09/06 18:40:13;;;;;;;;;;;24.20;46.30;;;;;;8398736;28;19928;-48
2021/09/06 18:44:14;;;;;;;;;;;24.30;46.40;;;;;;8399749;28;19912;-49
2021/09/06 18:48:15;;;;;;;;;;;24.30;46.40;;;;;;8398896;28;19917;-49
2021/09/06 18:52:17;;;;;;;;;;;24.20;46.30;;;;;;8398543;28;19931;-47
2021/09/06 18:56:17;;;;;;;;;;;24.20;46.30;;;;;;8398654;28;19921;-49
2021/09/06 19:00:19;;;;;;;;;;;24.20;46.30;;;;;;8399422;28;19912;-47
2021/09/06 19:04:20;;;;;;;;;;;24.20;46.30;;;;;;8398087;28;19923;-48
2021/09/06 19:08:21;;;;;;;;;;;24.20;46.30;;;;;;8398640;28;19920;-48
2021/09/06 19:12:21;;;;;;;;;;;24.20;46.30;;;;;;8398236;28;20332;-49
2021/09/06 19:16:22;;;;;;;;;;;24.20;46.30;;;;;;8398058;28;19913;-49
2021/09/06 19:20:22;;;;;;;;;;;24.10;46.80;;;;;;8398543;28;20349;-47
2021/09/06 19:24:23;;;;;;;;;;;24.10;46.30;;;;;;8397791;28;19927;-51
2021/09/06 19:28:25;;;;;;;;;;;24.20;46.30;;;;;;8397184;28;19916;-46
2021/09/06 19:32:26;;;;;;;;;;;24.20;46.30;;;;;;8397692;28;20323;-47
2021/09/06 19:36:28;;;;;;;;;;;24.20;46.30;;;;;;8398767;28;19916;-47
2021/09/06 19:40:28;;;;;;;;;;;24.20;46.30;;;;;;8396583;28;20284;-50
2021/09/06 19:44:29;;;;;;;;;;;24.20;46.30;;;;;;8397250;28;19917;-48
2021/09/06 19:48:29;;;;;;;;;;;24.10;46.80;;;;;;8397168;28;20366;-47
2021/09/06 19:52:30;;;;;;;;;;;24.20;46.30;;;;;;8396654;28;19959;-48
2021/09/06 19:56:30;;;;;;;;;;;24.20;46.30;;;;;;8396937;28;19917;-47
2021/09/06 20:00:31;;;;;;;;;;;24.20;46.30;;;;;;8396932;28;20013;-48
2021/09/06 20:04:31;;;;;;;;;;;24.20;46.30;;;;;;8396360;28;19921;-49
2021/09/06 20:08:32;;;;;;;;;;;24.10;46.30;;;;;;8396731;28;20365;-47
2021/09/06 20:12:32;;;;;;;;;;;24.10;46.30;;;;;;8397225;28;19931;-49
2021/09/06 20:16:34;;;;;;;;;;;24.10;46.30;;;;;;8395363;28;21303;-48
2021/09/06 20:20:35;;;;;;;;;;;24.10;46.30;;;;;;8396604;28;19920;-47
2021/09/06 20:24:35;;;;;;;;;;;24.10;46.30;;;;;;8396567;28;19916;-50
2021/09/06 20:28:36;;;;;;;;;;;24.10;46.30;;;;;;8396830;28;19913;-48
2021/09/06 20:32:37;;;;;;;;;;;24.10;46.30;;;;;;8396561;28;19933;-47
2021/09/06 20:36:38;;;;;;;;;;;24.10;46.30;;;;;;8396094;28;19921;-47
2021/09/06 20:40:38;;;;;;;;;;;24.10;46.30;;;;;;8396394;28;19928;-48
2021/09/06 20:44:39;;;;;;;;;;;24.10;46.30;;;;;;8397066;28;19917;-48
2021/09/06 20:48:39;;;;;;;;;;;24.10;46.30;;;;;;8395860;28;19924;-48
2021/09/06 20:52:40;;;;;;;;;;;24.10;46.30;;;;;;8395446;28;19968;-49
2021/09/06 20:56:40;;;;;;;;;;;24.10;46.30;;;;;;8395984;28;19951;-48
2021/09/06 21:00:41;;;;;;;;;;;24.10;46.30;;;;;;8395822;28;20007;-49
2021/09/06 21:04:41;;;;;;;;;;;24.10;46.20;;;;;;8399087;28;19919;-48
2021/09/06 21:08:42;;;;;;;;;;;24.10;46.20;;;;;;8401933;28;19984;-50
2021/09/06 21:12:43;;;;;;;;;;;24.10;46.30;;;;;;8402009;28;19924;-47
2021/09/06 21:16:43;;;;;;;;;;;24.10;46.30;;;;;;8401410;28;19917;-48
2021/09/06 21:20:44;;;;;;;;;;;24.10;46.30;;;;;;8402343;28;19912;-48
2021/09/06 21:24:44;;;;;;;;;;;24.10;46.20;;;;;;8401804;28;20330;-50
2021/09/06 21:28:46;;;;;;;;;;;24.00;46.20;;;;;;8401124;28;19917;-46
2021/09/06 21:32:46;;;;;;;;;;;24.00;46.20;;;;;;8401105;28;20020;-48
2021/09/06 21:36:47;;;;;;;;;;;24.00;46.20;;;;;;8401309;28;19916;-48
2021/09/06 21:40:47;;;;;;;;;;;24.00;46.20;;;;;;8401080;28;19982;-47
2021/09/06 21:44:48;;;;;;;;;;;24.00;46.20;;;;;;8401116;28;19977;-47
2021/09/06 21:48:48;;;;;;;;;;;24.00;46.70;;;;;;8400954;28;20368;-47
2021/09/06 21:52:49;;;;;;;;;;;24.00;46.20;;;;;;8400282;28;19925;-50
2021/09/06 21:56:49;;;;;;;;;;;24.00;46.20;;;;;;8401284;28;19913;-49
2021/09/06 22:00:50;;;;;;;;;;;24.00;46.20;;;;;;8402452;28;19943;-47
2021/09/06 22:04:50;;;;;;;;;;;24.00;46.20;;;;;;8416395;28;19970;-47
2021/09/06 22:08:51;;;;;;;;;;;24.00;46.20;;;;;;8400556;28;19921;-48
2021/09/06 22:12:51;;;;;;;;;;;24.00;46.20;;;;;;8400647;28;19927;-47
2021/09/06 22:16:52;;;;;;;;;;;24.00;46.20;;;;;;8399408;28;19923;-47
2021/09/06 22:20:52;;;;;;;;;;;24.00;46.20;;;;;;8399810;28;19923;-47
2021/09/06 22:24:53;;;;;;;;;;;24.00;46.20;;;;;;8399408;28;19916;-46
2021/09/06 22:28:53;;;;;;;;;;;24.00;46.20;;;;;;8399738;28;19912;-47
2021/09/06 22:32:54;;;;;;;;;;;23.90;46.20;;;;;;8400097;28;19924;-47
2021/09/06 22:36:54;;;;;;;;;;;23.90;46.20;;;;;;8399039;28;20289;-48
2021/09/06 22:40:55;;;;;;;;;;;23.90;46.20;;;;;;8399166;28;19924;-47
2021/09/06 22:44:55;;;;;;;;;;;23.90;46.20;;;;;;8398910;28;19917;-49
2021/09/06 22:48:56;;;;;;;;;;;23.90;46.20;;;;;;8399249;28;19912;-47
2021/09/06 22:52:56;;;;;;;;;;;23.90;46.10;;;;;;8398870;28;19977;-49
2021/09/06 22:56:57;;;;;;;;;;;23.90;46.20;;;;;;8398926;28;19924;-47
2021/09/06 23:00:57;;;;;;;;;;;23.90;46.20;;;;;;8398084;28;19940;-47
2021/09/06 23:04:58;;;;;;;;;;;23.90;46.20;;;;;;8399437;28;19974;-47
2021/09/06 23:08:58;;;;;;;;;;;23.90;46.20;;;;;;8380366;28;20300;-47
2021/09/06 23:12:59;;;;;;;;;;;23.90;46.20;;;;;;8397579;28;19928;-50
2021/09/06 23:16:59;;;;;;;;;;;23.90;46.20;;;;;;8398260;28;19917;-47
2021/09/06 23:21:00;;;;;;;;;;;23.80;46.10;;;;;;8397956;28;19912;-47